Aviation Digital Data Service (ADDS)

Output produced by METARs form (2020 UTC 18 February 2018)
found at http://aviationweather.gov/adds/metars/
 
KDTW 181757Z 1818/1924 20010KT P6SM SCT025 BKN250 
     FM182200 14005KT P6SM FEW025 SCT250 
     FM190900 18003KT P6SM BKN025 BKN060 OVC100 
     FM191200 20005KT 4SM -SHRA BR BKN015 OVC050 
     FM191800 VRB04KT 3SM -SHRA BR SCT008 OVC015